KOCF/OCF METAR and TAF weather

Enter ICAO airport designator
Station Type Date Time Source
KOCF METAR 2021/09/28 03:51 UTC NOAA

KOCF 280351Z AUTO 00000KT 10SM CLR 22/18 A3010 RMK AO2 SLP192 T02220183


Station Type Date Time Source
KOCF Decoded METAR 2021/09/28 03:51 UTC NOAA

Ocala, Ocala International Airport-Jim Taylor Field, FL, United States (KOCF) 29-10N 082-13W
Sep 27, 2021 - 11:51 PM EDT / 2021.09.28 0351 UTC
Wind: Calm:0
Visibility: 10 mile(s):0
Sky conditions: clear
Temperature: 72.0 F (22.2 C)
Dew Point: 64.9 F (18.3 C)
Relative Humidity: 78%
Pressure (altimeter): 30.1 in. Hg (1019 hPa)
ob: KOCF 280351Z AUTO 00000KT 10SM CLR 22/18 A3010 RMK AO2 SLP192 T02220183
cycle: 4

Station Type Date Time Source
KOCF TAF UTC NOAA

Error!

Example: see airport list